sensor_id;sensor_type;location;lat;lon;timestamp;P1;durP1;ratioP1;P2;durP2;ratioP2
24901;SDS011;31328;51.402;0.016;2022-11-04T00:01:55;12.03;;;5.33;;
24901;SDS011;31328;51.402;0.016;2022-11-04T00:04:23;7.63;;;5.37;;
24901;SDS011;31328;51.402;0.016;2022-11-04T00:06:51;11.40;;;5.80;;
24901;SDS011;31328;51.402;0.016;2022-11-04T00:09:19;8.93;;;5.30;;
24901;SDS011;31328;51.402;0.016;2022-11-04T00:11:47;9.50;;;5.23;;
24901;SDS011;31328;51.402;0.016;2022-11-04T00:16:58;9.83;;;4.97;;
24901;SDS011;31328;51.402;0.016;2022-11-04T00:19:47;10.03;;;5.10;;
24901;SDS011;31328;51.402;0.016;2022-11-04T00:22:36;10.20;;;5.17;;
24901;SDS011;31328;51.402;0.016;2022-11-04T00:25:22;11.13;;;6.20;;
24901;SDS011;31328;51.402;0.016;2022-11-04T00:28:09;11.80;;;6.37;;
24901;SDS011;31328;51.402;0.016;2022-11-04T00:30:56;12.60;;;6.30;;
24901;SDS011;31328;51.402;0.016;2022-11-04T00:33:47;11.47;;;5.67;;
24901;SDS011;31328;51.402;0.016;2022-11-04T00:36:15;11.73;;;6.13;;
24901;SDS011;31328;51.402;0.016;2022-11-04T00:38:41;13.00;;;6.37;;
24901;SDS011;31328;51.402;0.016;2022-11-04T00:41:08;10.23;;;6.43;;
24901;SDS011;31328;51.402;0.016;2022-11-04T00:43:53;10.43;;;6.28;;
24901;SDS011;31328;51.402;0.016;2022-11-04T00:46:20;9.43;;;6.10;;
24901;SDS011;31328;51.402;0.016;2022-11-04T00:48:46;12.83;;;6.63;;
24901;SDS011;31328;51.402;0.016;2022-11-04T00:51:13;11.87;;;6.80;;
24901;SDS011;31328;51.402;0.016;2022-11-04T00:53:39;15.03;;;6.20;;
24901;SDS011;31328;51.402;0.016;2022-11-04T00:56:06;12.10;;;5.60;;
24901;SDS011;31328;51.402;0.016;2022-11-04T00:58:32;13.43;;;6.67;;
24901;SDS011;31328;51.402;0.016;2022-11-04T01:00:58;9.27;;;5.73;;
24901;SDS011;31328;51.402;0.016;2022-11-04T01:03:25;11.87;;;6.10;;
24901;SDS011;31328;51.402;0.016;2022-11-04T01:05:51;11.97;;;4.70;;
24901;SDS011;31328;51.402;0.016;2022-11-04T01:08:18;10.93;;;5.30;;
24901;SDS011;31328;51.402;0.016;2022-11-04T01:10:44;11.27;;;5.13;;
24901;SDS011;31328;51.402;0.016;2022-11-04T01:13:10;10.23;;;5.00;;
24901;SDS011;31328;51.402;0.016;2022-11-04T01:15:37;9.50;;;4.43;;
24901;SDS011;31328;51.402;0.016;2022-11-04T01:18:03;7.73;;;5.53;;
24901;SDS011;31328;51.402;0.016;2022-11-04T01:20:30;10.03;;;5.10;;
24901;SDS011;31328;51.402;0.016;2022-11-04T01:22:57;11.40;;;5.17;;
24901;SDS011;31328;51.402;0.016;2022-11-04T01:25:24;9.97;;;6.60;;
24901;SDS011;31328;51.402;0.016;2022-11-04T01:27:50;9.67;;;4.77;;
24901;SDS011;31328;51.402;0.016;2022-11-04T01:30:17;8.10;;;4.70;;
24901;SDS011;31328;51.402;0.016;2022-11-04T01:32:43;9.30;;;4.17;;
24901;SDS011;31328;51.402;0.016;2022-11-04T01:35:09;7.63;;;4.80;;
24901;SDS011;31328;51.402;0.016;2022-11-04T01:37:35;9.87;;;4.97;;
24901;SDS011;31328;51.402;0.016;2022-11-04T01:40:02;8.57;;;4.23;;
24901;SDS011;31328;51.402;0.016;2022-11-04T01:42:28;6.83;;;4.17;;
24901;SDS011;31328;51.402;0.016;2022-11-04T01:44:56;8.47;;;5.23;;
24901;SDS011;31328;51.402;0.016;2022-11-04T01:47:28;9.67;;;4.70;;
24901;SDS011;31328;51.402;0.016;2022-11-04T01:50:04;12.40;;;4.33;;
24901;SDS011;31328;51.402;0.016;2022-11-04T01:55:40;7.47;;;3.73;;
24901;SDS011;31328;51.402;0.016;2022-11-04T01:58:12;8.47;;;3.50;;
24901;SDS011;31328;51.402;0.016;2022-11-04T02:00:42;4.73;;;2.77;;
24901;SDS011;31328;51.402;0.016;2022-11-04T02:03:14;6.37;;;2.90;;
24901;SDS011;31328;51.402;0.016;2022-11-04T02:05:45;6.00;;;2.43;;
24901;SDS011;31328;51.402;0.016;2022-11-04T02:08:13;4.90;;;2.33;;
24901;SDS011;31328;51.402;0.016;2022-11-04T02:10:49;5.17;;;1.77;;
24901;SDS011;31328;51.402;0.016;2022-11-04T02:13:21;3.90;;;2.20;;
24901;SDS011;31328;51.402;0.016;2022-11-04T02:43:21;6.87;;;3.50;;
24901;SDS011;31328;51.402;0.016;2022-11-04T02:49:02;9.97;;;5.10;;
24901;SDS011;31328;51.402;0.016;2022-11-04T02:51:36;11.45;;;5.70;;
24901;SDS011;31328;51.402;0.016;2022-11-04T02:54:24;14.90;;;7.23;;
24901;SDS011;31328;51.402;0.016;2022-11-04T02:56:58;15.90;;;7.93;;
24901;SDS011;31328;51.402;0.016;2022-11-04T02:59:30;14.27;;;9.57;;
24901;SDS011;31328;51.402;0.016;2022-11-04T03:02:02;14.23;;;8.57;;
24901;SDS011;31328;51.402;0.016;2022-11-04T03:04:34;19.10;;;8.70;;
24901;SDS011;31328;51.402;0.016;2022-11-04T03:07:05;17.20;;;9.77;;
24901;SDS011;31328;51.402;0.016;2022-11-04T03:09:35;17.67;;;9.70;;
24901;SDS011;31328;51.402;0.016;2022-11-04T03:12:08;18.33;;;8.70;;
24901;SDS011;31328;51.402;0.016;2022-11-04T03:14:41;15.07;;;9.23;;
24901;SDS011;31328;51.402;0.016;2022-11-04T03:17:21;18.80;;;9.50;;
24901;SDS011;31328;51.402;0.016;2022-11-04T03:19:57;18.03;;;10.00;;
24901;SDS011;31328;51.402;0.016;2022-11-04T03:22:26;21.60;;;11.07;;
24901;SDS011;31328;51.402;0.016;2022-11-04T03:24:54;19.30;;;11.07;;
24901;SDS011;31328;51.402;0.016;2022-11-04T03:30:18;15.80;;;8.37;;
24901;SDS011;31328;51.402;0.016;2022-11-04T03:35:22;15.37;;;9.27;;
24901;SDS011;31328;51.402;0.016;2022-11-04T03:37:49;15.40;;;8.67;;
24901;SDS011;31328;51.402;0.016;2022-11-04T03:40:15;15.53;;;9.17;;
24901;SDS011;31328;51.402;0.016;2022-11-04T03:43:28;19.37;;;9.40;;
24901;SDS011;31328;51.402;0.016;2022-11-04T03:45:33;12.93;;;7.83;;
24901;SDS011;31328;51.402;0.016;2022-11-04T03:48:00;13.67;;;8.53;;
24901;SDS011;31328;51.402;0.016;2022-11-04T03:50:31;16.97;;;8.43;;
24901;SDS011;31328;51.402;0.016;2022-11-04T03:53:03;12.37;;;6.80;;
24901;SDS011;31328;51.402;0.016;2022-11-04T03:55:33;11.10;;;6.27;;
24901;SDS011;31328;51.402;0.016;2022-11-04T03:58:31;11.73;;;5.60;;
24901;SDS011;31328;51.402;0.016;2022-11-04T04:03:47;11.27;;;5.33;;
24901;SDS011;31328;51.402;0.016;2022-11-04T04:06:23;9.47;;;4.70;;
24901;SDS011;31328;51.402;0.016;2022-11-04T04:08:56;10.70;;;5.18;;
24901;SDS011;31328;51.402;0.016;2022-11-04T04:14:18;9.40;;;4.50;;
24901;SDS011;31328;51.402;0.016;2022-11-04T04:19:35;10.87;;;4.67;;
24901;SDS011;31328;51.402;0.016;2022-11-04T04:22:04;9.57;;;3.67;;
24901;SDS011;31328;51.402;0.016;2022-11-04T04:24:36;9.87;;;3.60;;
24901;SDS011;31328;51.402;0.016;2022-11-04T04:27:25;9.43;;;3.80;;
24901;SDS011;31328;51.402;0.016;2022-11-04T04:29:56;12.50;;;4.83;;
24901;SDS011;31328;51.402;0.016;2022-11-04T04:32:25;9.40;;;3.73;;
24901;SDS011;31328;51.402;0.016;2022-11-04T04:34:53;10.73;;;4.17;;
24901;SDS011;31328;51.402;0.016;2022-11-04T04:37:40;9.13;;;4.00;;
24901;SDS011;31328;51.402;0.016;2022-11-04T04:40:08;10.97;;;3.93;;
24901;SDS011;31328;51.402;0.016;2022-11-04T04:42:58;11.47;;;4.17;;
24901;SDS011;31328;51.402;0.016;2022-11-04T04:45:50;8.55;;;3.60;;
24901;SDS011;31328;51.402;0.016;2022-11-04T04:48:18;10.00;;;4.00;;
24901;SDS011;31328;51.402;0.016;2022-11-04T04:50:46;8.83;;;3.67;;
24901;SDS011;31328;51.402;0.016;2022-11-04T04:53:14;8.13;;;3.47;;
24901;SDS011;31328;51.402;0.016;2022-11-04T04:55:40;7.50;;;3.87;;
24901;SDS011;31328;51.402;0.016;2022-11-04T04:58:07;10.73;;;4.60;;
24901;SDS011;31328;51.402;0.016;2022-11-04T05:00:34;7.07;;;4.50;;
24901;SDS011;31328;51.402;0.016;2022-11-04T05:03:00;8.77;;;4.60;;
24901;SDS011;31328;51.402;0.016;2022-11-04T05:05:26;11.40;;;5.57;;
24901;SDS011;31328;51.402;0.016;2022-11-04T05:07:53;8.73;;;4.80;;
24901;SDS011;31328;51.402;0.016;2022-11-04T05:10:19;14.43;;;5.77;;
24901;SDS011;31328;51.402;0.016;2022-11-04T05:12:45;14.43;;;5.50;;
24901;SDS011;31328;51.402;0.016;2022-11-04T05:15:30;10.52;;;5.28;;
24901;SDS011;31328;51.402;0.016;2022-11-04T05:17:57;11.93;;;6.50;;
24901;SDS011;31328;51.402;0.016;2022-11-04T05:20:25;11.43;;;5.37;;
24901;SDS011;31328;51.402;0.016;2022-11-04T05:22:53;12.57;;;5.73;;
24901;SDS011;31328;51.402;0.016;2022-11-04T05:25:20;15.37;;;6.47;;
24901;SDS011;31328;51.402;0.016;2022-11-04T05:27:46;13.23;;;6.30;;
24901;SDS011;31328;51.402;0.016;2022-11-04T05:30:12;12.37;;;6.50;;
24901;SDS011;31328;51.402;0.016;2022-11-04T05:32:39;17.00;;;7.60;;
24901;SDS011;31328;51.402;0.016;2022-11-04T05:35:05;12.83;;;7.17;;
24901;SDS011;31328;51.402;0.016;2022-11-04T05:37:32;21.37;;;8.90;;
24901;SDS011;31328;51.402;0.016;2022-11-04T05:39:58;17.80;;;8.37;;
24901;SDS011;31328;51.402;0.016;2022-11-04T05:42:24;17.77;;;8.53;;
24901;SDS011;31328;51.402;0.016;2022-11-04T05:44:50;15.37;;;7.80;;
24901;SDS011;31328;51.402;0.016;2022-11-04T05:47:17;17.23;;;8.37;;
24901;SDS011;31328;51.402;0.016;2022-11-04T05:49:43;18.97;;;9.33;;
24901;SDS011;31328;51.402;0.016;2022-11-04T05:52:09;19.07;;;9.50;;
24901;SDS011;31328;51.402;0.016;2022-11-04T05:54:36;21.23;;;9.47;;
24901;SDS011;31328;51.402;0.016;2022-11-04T05:57:03;21.47;;;9.17;;
24901;SDS011;31328;51.402;0.016;2022-11-04T05:59:30;17.23;;;9.30;;
24901;SDS011;31328;51.402;0.016;2022-11-04T06:01:56;21.63;;;9.37;;
24901;SDS011;31328;51.402;0.016;2022-11-04T06:04:22;19.07;;;9.73;;
24901;SDS011;31328;51.402;0.016;2022-11-04T06:06:49;19.77;;;9.77;;
24901;SDS011;31328;51.402;0.016;2022-11-04T06:09:15;18.80;;;8.93;;
24901;SDS011;31328;51.402;0.016;2022-11-04T06:11:41;16.73;;;8.30;;
24901;SDS011;31328;51.402;0.016;2022-11-04T06:14:08;21.33;;;9.10;;
24901;SDS011;31328;51.402;0.016;2022-11-04T06:16:34;15.97;;;8.50;;
24901;SDS011;31328;51.402;0.016;2022-11-04T06:19:01;15.33;;;7.93;;
24901;SDS011;31328;51.402;0.016;2022-11-04T06:21:28;14.10;;;8.03;;
24901;SDS011;31328;51.402;0.016;2022-11-04T06:23:56;14.60;;;7.33;;
24901;SDS011;31328;51.402;0.016;2022-11-04T06:26:27;15.70;;;7.50;;
24901;SDS011;31328;51.402;0.016;2022-11-04T06:28:55;14.20;;;6.80;;
24901;SDS011;31328;51.402;0.016;2022-11-04T06:31:22;14.07;;;6.73;;
24901;SDS011;31328;51.402;0.016;2022-11-04T06:33:49;19.00;;;6.93;;
24901;SDS011;31328;51.402;0.016;2022-11-04T06:36:15;14.47;;;7.23;;
24901;SDS011;31328;51.402;0.016;2022-11-04T06:38:42;14.37;;;6.70;;
24901;SDS011;31328;51.402;0.016;2022-11-04T06:41:13;13.50;;;6.70;;
24901;SDS011;31328;51.402;0.016;2022-11-04T06:43:41;16.30;;;6.83;;
24901;SDS011;31328;51.402;0.016;2022-11-04T06:46:23;14.70;;;6.13;;
24901;SDS011;31328;51.402;0.016;2022-11-04T06:49:02;16.03;;;7.73;;
24901;SDS011;31328;51.402;0.016;2022-11-04T06:51:29;15.50;;;7.17;;
24901;SDS011;31328;51.402;0.016;2022-11-04T06:53:55;15.63;;;7.23;;
24901;SDS011;31328;51.402;0.016;2022-11-04T06:56:22;12.87;;;7.17;;
24901;SDS011;31328;51.402;0.016;2022-11-04T06:58:49;15.33;;;6.97;;
24901;SDS011;31328;51.402;0.016;2022-11-04T07:01:17;16.50;;;7.73;;
24901;SDS011;31328;51.402;0.016;2022-11-04T07:03:47;14.17;;;6.80;;
24901;SDS011;31328;51.402;0.016;2022-11-04T07:06:18;12.57;;;7.03;;
24901;SDS011;31328;51.402;0.016;2022-11-04T07:08:45;14.70;;;5.90;;
24901;SDS011;31328;51.402;0.016;2022-11-04T07:11:13;12.33;;;6.50;;
24901;SDS011;31328;51.402;0.016;2022-11-04T07:13:40;13.53;;;5.83;;
24901;SDS011;31328;51.402;0.016;2022-11-04T07:16:07;12.87;;;5.93;;
24901;SDS011;31328;51.402;0.016;2022-11-04T07:18:34;17.97;;;8.37;;
24901;SDS011;31328;51.402;0.016;2022-11-04T07:21:01;12.30;;;6.90;;
24901;SDS011;31328;51.402;0.016;2022-11-04T07:23:28;14.10;;;7.50;;
24901;SDS011;31328;51.402;0.016;2022-11-04T07:25:58;14.63;;;7.43;;
24901;SDS011;31328;51.402;0.016;2022-11-04T07:28:28;15.63;;;6.95;;
24901;SDS011;31328;51.402;0.016;2022-11-04T07:30:55;10.87;;;6.53;;
24901;SDS011;31328;51.402;0.016;2022-11-04T07:33:23;16.90;;;7.23;;
24901;SDS011;31328;51.402;0.016;2022-11-04T07:35:50;16.37;;;8.10;;
24901;SDS011;31328;51.402;0.016;2022-11-04T07:38:18;15.77;;;8.03;;
24901;SDS011;31328;51.402;0.016;2022-11-04T07:40:45;14.37;;;6.73;;
24901;SDS011;31328;51.402;0.016;2022-11-04T07:43:12;14.53;;;7.03;;
24901;SDS011;31328;51.402;0.016;2022-11-04T07:45:38;19.33;;;7.60;;
24901;SDS011;31328;51.402;0.016;2022-11-04T07:48:05;17.50;;;7.57;;
24901;SDS011;31328;51.402;0.016;2022-11-04T07:50:32;17.53;;;7.03;;
24901;SDS011;31328;51.402;0.016;2022-11-04T07:52:59;10.90;;;6.23;;
24901;SDS011;31328;51.402;0.016;2022-11-04T07:55:25;12.97;;;6.77;;
24901;SDS011;31328;51.402;0.016;2022-11-04T07:57:53;12.57;;;6.67;;
24901;SDS011;31328;51.402;0.016;2022-11-04T08:00:20;13.53;;;7.23;;
24901;SDS011;31328;51.402;0.016;2022-11-04T08:02:46;12.67;;;6.90;;
24901;SDS011;31328;51.402;0.016;2022-11-04T08:05:13;14.10;;;7.23;;
24901;SDS011;31328;51.402;0.016;2022-11-04T08:07:39;16.87;;;6.57;;
24901;SDS011;31328;51.402;0.016;2022-11-04T08:10:07;15.43;;;6.40;;
24901;SDS011;31328;51.402;0.016;2022-11-04T08:12:34;14.20;;;8.27;;
24901;SDS011;31328;51.402;0.016;2022-11-04T08:15:02;12.93;;;5.70;;
24901;SDS011;31328;51.402;0.016;2022-11-04T08:17:30;12.87;;;5.23;;
24901;SDS011;31328;51.402;0.016;2022-11-04T08:19:56;10.60;;;5.23;;
24901;SDS011;31328;51.402;0.016;2022-11-04T08:22:22;10.67;;;5.97;;
24901;SDS011;31328;51.402;0.016;2022-11-04T08:24:48;9.07;;;4.73;;
24901;SDS011;31328;51.402;0.016;2022-11-04T08:27:15;12.97;;;5.00;;
24901;SDS011;31328;51.402;0.016;2022-11-04T08:29:41;11.97;;;5.83;;
24901;SDS011;31328;51.402;0.016;2022-11-04T08:32:08;11.93;;;5.70;;
24901;SDS011;31328;51.402;0.016;2022-11-04T08:34:34;16.43;;;5.60;;
24901;SDS011;31328;51.402;0.016;2022-11-04T08:37:00;12.83;;;5.70;;
24901;SDS011;31328;51.402;0.016;2022-11-04T08:39:27;13.33;;;6.33;;
24901;SDS011;31328;51.402;0.016;2022-11-04T08:41:54;8.73;;;4.60;;
24901;SDS011;31328;51.402;0.016;2022-11-04T08:44:20;14.20;;;5.50;;
24901;SDS011;31328;51.402;0.016;2022-11-04T08:46:47;14.60;;;5.03;;
24901;SDS011;31328;51.402;0.016;2022-11-04T08:49:13;14.17;;;4.60;;
24901;SDS011;31328;51.402;0.016;2022-11-04T08:51:41;9.17;;;4.73;;
24901;SDS011;31328;51.402;0.016;2022-11-04T08:54:09;11.17;;;3.57;;
24901;SDS011;31328;51.402;0.016;2022-11-04T08:56:37;9.63;;;5.20;;
24901;SDS011;31328;51.402;0.016;2022-11-04T08:59:04;8.77;;;3.93;;
24901;SDS011;31328;51.402;0.016;2022-11-04T09:01:32;11.80;;;5.27;;
24901;SDS011;31328;51.402;0.016;2022-11-04T09:04:00;10.87;;;3.60;;
24901;SDS011;31328;51.402;0.016;2022-11-04T09:06:28;8.53;;;3.43;;
24901;SDS011;31328;51.402;0.016;2022-11-04T09:08:57;11.37;;;4.33;;
24901;SDS011;31328;51.402;0.016;2022-11-04T09:11:29;10.33;;;3.70;;
24901;SDS011;31328;51.402;0.016;2022-11-04T09:13:58;10.73;;;3.60;;
24901;SDS011;31328;51.402;0.016;2022-11-04T09:16:25;9.97;;;4.20;;
24901;SDS011;31328;51.402;0.016;2022-11-04T09:18:54;9.73;;;3.63;;
24901;SDS011;31328;51.402;0.016;2022-11-04T09:21:21;8.87;;;4.30;;
24901;SDS011;31328;51.402;0.016;2022-11-04T09:23:48;9.40;;;3.77;;
24901;SDS011;31328;51.402;0.016;2022-11-04T09:26:15;10.73;;;3.77;;
24901;SDS011;31328;51.402;0.016;2022-11-04T09:28:42;7.33;;;2.67;;
24901;SDS011;31328;51.402;0.016;2022-11-04T09:31:10;8.73;;;3.53;;
24901;SDS011;31328;51.402;0.016;2022-11-04T09:33:41;6.77;;;3.13;;
24901;SDS011;31328;51.402;0.016;2022-11-04T09:36:08;6.13;;;3.30;;
24901;SDS011;31328;51.402;0.016;2022-11-04T09:38:39;7.73;;;2.63;;
24901;SDS011;31328;51.402;0.016;2022-11-04T09:44:15;8.80;;;2.80;;
24901;SDS011;31328;51.402;0.016;2022-11-04T09:46:45;5.23;;;3.10;;
24901;SDS011;31328;51.402;0.016;2022-11-04T09:49:14;7.57;;;3.40;;
24901;SDS011;31328;51.402;0.016;2022-11-04T09:51:42;10.63;;;2.97;;
24901;SDS011;31328;51.402;0.016;2022-11-04T09:54:15;5.20;;;2.83;;
24901;SDS011;31328;51.402;0.016;2022-11-04T09:56:48;11.43;;;3.27;;
24901;SDS011;31328;51.402;0.016;2022-11-04T09:59:26;11.47;;;3.00;;
24901;SDS011;31328;51.402;0.016;2022-11-04T10:02:02;7.23;;;2.93;;
24901;SDS011;31328;51.402;0.016;2022-11-04T10:13:00;6.70;;;3.17;;
24901;SDS011;31328;51.402;0.016;2022-11-04T10:21:11;9.07;;;3.57;;
24901;SDS011;31328;51.402;0.016;2022-11-04T10:29:12;7.50;;;2.80;;
24901;SDS011;31328;51.402;0.016;2022-11-04T10:31:42;6.20;;;2.97;;
24901;SDS011;31328;51.402;0.016;2022-11-04T10:34:14;6.30;;;2.47;;
24901;SDS011;31328;51.402;0.016;2022-11-04T10:37:10;7.20;;;2.53;;
24901;SDS011;31328;51.402;0.016;2022-11-04T10:39:44;6.00;;;2.40;;
24901;SDS011;31328;51.402;0.016;2022-11-04T10:42:18;5.83;;;2.13;;
24901;SDS011;31328;51.402;0.016;2022-11-04T10:44:49;5.50;;;2.70;;
24901;SDS011;31328;51.402;0.016;2022-11-04T10:50:00;8.10;;;2.87;;
24901;SDS011;31328;51.402;0.016;2022-11-04T10:52:40;5.00;;;2.37;;
24901;SDS011;31328;51.402;0.016;2022-11-04T10:55:13;6.23;;;2.90;;
24901;SDS011;31328;51.402;0.016;2022-11-04T10:57:53;4.63;;;2.85;;
24901;SDS011;31328;51.402;0.016;2022-11-04T11:00:39;5.83;;;2.40;;
24901;SDS011;31328;51.402;0.016;2022-11-04T11:05:53;6.53;;;2.47;;
24901;SDS011;31328;51.402;0.016;2022-11-04T11:08:34;5.33;;;2.70;;
24901;SDS011;31328;51.402;0.016;2022-11-04T11:11:04;10.07;;;3.20;;
24901;SDS011;31328;51.402;0.016;2022-11-04T11:13:35;5.70;;;2.80;;
24901;SDS011;31328;51.402;0.016;2022-11-04T11:16:11;8.43;;;3.30;;
24901;SDS011;31328;51.402;0.016;2022-11-04T11:18:49;5.30;;;2.33;;
24901;SDS011;31328;51.402;0.016;2022-11-04T11:22:17;8.50;;;2.97;;
24901;SDS011;31328;51.402;0.016;2022-11-04T11:24:29;6.43;;;2.90;;
24901;SDS011;31328;51.402;0.016;2022-11-04T11:27:01;7.17;;;3.43;;
24901;SDS011;31328;51.402;0.016;2022-11-04T11:29:37;5.23;;;2.20;;
24901;SDS011;31328;51.402;0.016;2022-11-04T11:35:18;6.83;;;2.10;;
24901;SDS011;31328;51.402;0.016;2022-11-04T11:37:48;5.63;;;2.03;;
24901;SDS011;31328;51.402;0.016;2022-11-04T11:40:22;5.63;;;2.27;;
24901;SDS011;31328;51.402;0.016;2022-11-04T11:42:53;7.73;;;3.23;;
24901;SDS011;31328;51.402;0.016;2022-11-04T11:45:21;5.07;;;2.63;;
24901;SDS011;31328;51.402;0.016;2022-11-04T11:47:48;7.37;;;2.63;;
24901;SDS011;31328;51.402;0.016;2022-11-04T11:53:17;7.33;;;2.80;;
24901;SDS011;31328;51.402;0.016;2022-11-04T11:55:52;5.63;;;2.47;;
24901;SDS011;31328;51.402;0.016;2022-11-04T11:58:41;11.03;;;3.07;;
24901;SDS011;31328;51.402;0.016;2022-11-04T12:01:13;8.07;;;3.60;;
24901;SDS011;31328;51.402;0.016;2022-11-04T12:03:44;9.30;;;3.27;;
24901;SDS011;31328;51.402;0.016;2022-11-04T12:09:11;7.37;;;2.37;;
24901;SDS011;31328;51.402;0.016;2022-11-04T12:11:54;7.43;;;2.60;;
24901;SDS011;31328;51.402;0.016;2022-11-04T12:20:17;7.80;;;2.77;;
24901;SDS011;31328;51.402;0.016;2022-11-04T12:39:43;5.07;;;1.50;;
24901;SDS011;31328;51.402;0.016;2022-11-04T12:47:44;5.87;;;1.87;;
24901;SDS011;31328;51.402;0.016;2022-11-04T12:53:28;6.20;;;1.80;;
24901;SDS011;31328;51.402;0.016;2022-11-04T12:56:08;6.10;;;1.60;;
24901;SDS011;31328;51.402;0.016;2022-11-04T13:01:22;9.53;;;2.23;;
24901;SDS011;31328;51.402;0.016;2022-11-04T13:03:56;6.80;;;1.63;;
24901;SDS011;31328;51.402;0.016;2022-11-04T13:06:42;4.07;;;1.50;;
24901;SDS011;31328;51.402;0.016;2022-11-04T13:11:50;6.53;;;1.10;;
24901;SDS011;31328;51.402;0.016;2022-11-04T13:14:22;3.50;;;1.20;;
24901;SDS011;31328;51.402;0.016;2022-11-04T13:16:55;5.00;;;1.52;;
24901;SDS011;31328;51.402;0.016;2022-11-04T13:22:20;3.20;;;1.70;;
24901;SDS011;31328;51.402;0.016;2022-11-04T13:24:50;3.93;;;1.07;;
24901;SDS011;31328;51.402;0.016;2022-11-04T13:27:22;3.40;;;1.13;;
24901;SDS011;31328;51.402;0.016;2022-11-04T13:29:56;4.10;;;0.80;;
24901;SDS011;31328;51.402;0.016;2022-11-04T13:32:44;2.27;;;0.80;;
24901;SDS011;31328;51.402;0.016;2022-11-04T13:35:40;3.50;;;0.80;;
24901;SDS011;31328;51.402;0.016;2022-11-04T13:38:09;3.60;;;1.17;;
24901;SDS011;31328;51.402;0.016;2022-11-04T13:40:44;1.77;;;1.20;;
24901;SDS011;31328;51.402;0.016;2022-11-04T13:43:32;1.40;;;0.67;;
24901;SDS011;31328;51.402;0.016;2022-11-04T13:48:35;3.17;;;0.67;;
24901;SDS011;31328;51.402;0.016;2022-11-04T13:53:53;3.10;;;0.60;;
24901;SDS011;31328;51.402;0.016;2022-11-04T13:56:32;1.98;;;0.57;;
24901;SDS011;31328;51.402;0.016;2022-11-04T13:59:21;2.30;;;0.60;;
24901;SDS011;31328;51.402;0.016;2022-11-04T14:04:40;3.03;;;1.20;;
24901;SDS011;31328;51.402;0.016;2022-11-04T14:07:13;1.83;;;1.17;;
24901;SDS011;31328;51.402;0.016;2022-11-04T14:14:42;1.77;;;0.63;;
24901;SDS011;31328;51.402;0.016;2022-11-04T14:27:45;3.97;;;1.90;;
24901;SDS011;31328;51.402;0.016;2022-11-04T14:33:17;2.85;;;0.80;;
24901;SDS011;31328;51.402;0.016;2022-11-04T14:36:12;2.70;;;0.60;;
24901;SDS011;31328;51.402;0.016;2022-11-04T14:39:02;2.60;;;0.80;;
24901;SDS011;31328;51.402;0.016;2022-11-04T14:41:49;4.60;;;1.27;;
24901;SDS011;31328;51.402;0.016;2022-11-04T14:44:23;2.70;;;0.87;;
24901;SDS011;31328;51.402;0.016;2022-11-04T14:47:25;3.07;;;1.53;;
24901;SDS011;31328;51.402;0.016;2022-11-04T14:55:16;2.13;;;0.60;;
24901;SDS011;31328;51.402;0.016;2022-11-04T15:03:16;3.17;;;0.60;;
24901;SDS011;31328;51.402;0.016;2022-11-04T15:05:51;4.28;;;0.75;;
24901;SDS011;31328;51.402;0.016;2022-11-04T15:08:30;2.17;;;0.80;;
24901;SDS011;31328;51.402;0.016;2022-11-04T15:11:09;1.73;;;0.68;;
24901;SDS011;31328;51.402;0.016;2022-11-04T15:13:45;2.03;;;0.80;;
24901;SDS011;31328;51.402;0.016;2022-11-04T15:16:20;2.40;;;1.00;;
24901;SDS011;31328;51.402;0.016;2022-11-04T15:18:53;4.63;;;1.10;;
24901;SDS011;31328;51.402;0.016;2022-11-04T15:21:23;1.50;;;0.60;;
24901;SDS011;31328;51.402;0.016;2022-11-04T15:23:51;6.07;;;1.30;;
24901;SDS011;31328;51.402;0.016;2022-11-04T15:26:19;1.70;;;0.85;;
24901;SDS011;31328;51.402;0.016;2022-11-04T15:28:54;3.77;;;1.10;;
24901;SDS011;31328;51.402;0.016;2022-11-04T15:31:23;3.87;;;1.70;;
24901;SDS011;31328;51.402;0.016;2022-11-04T15:33:54;3.70;;;1.00;;
24901;SDS011;31328;51.402;0.016;2022-11-04T15:36:34;3.10;;;1.07;;
24901;SDS011;31328;51.402;0.016;2022-11-04T15:39:07;4.37;;;1.17;;
24901;SDS011;31328;51.402;0.016;2022-11-04T15:41:38;3.30;;;1.07;;
24901;SDS011;31328;51.402;0.016;2022-11-04T15:44:26;1.40;;;0.80;;
24901;SDS011;31328;51.402;0.016;2022-11-04T15:46:58;4.80;;;1.73;;
24901;SDS011;31328;51.402;0.016;2022-11-04T15:49:29;4.63;;;1.10;;
24901;SDS011;31328;51.402;0.016;2022-11-04T15:52:00;4.53;;;1.80;;
24901;SDS011;31328;51.402;0.016;2022-11-04T15:54:32;3.63;;;0.83;;
24901;SDS011;31328;51.402;0.016;2022-11-04T15:57:10;2.93;;;1.10;;
24901;SDS011;31328;51.402;0.016;2022-11-04T15:59:45;5.67;;;1.40;;
24901;SDS011;31328;51.402;0.016;2022-11-04T16:02:28;2.88;;;1.02;;
24901;SDS011;31328;51.402;0.016;2022-11-04T16:05:15;3.20;;;0.93;;
24901;SDS011;31328;51.402;0.016;2022-11-04T16:07:51;1.98;;;0.90;;
24901;SDS011;31328;51.402;0.016;2022-11-04T16:10:32;2.67;;;0.57;;
24901;SDS011;31328;51.402;0.016;2022-11-04T16:13:02;2.63;;;1.00;;
24901;SDS011;31328;51.402;0.016;2022-11-04T16:18:23;5.57;;;1.20;;
24901;SDS011;31328;51.402;0.016;2022-11-04T16:20:51;10.07;;;1.63;;
24901;SDS011;31328;51.402;0.016;2022-11-04T16:23:22;2.90;;;0.97;;
24901;SDS011;31328;51.402;0.016;2022-11-04T16:25:57;3.72;;;1.20;;
24901;SDS011;31328;51.402;0.016;2022-11-04T16:28:29;2.43;;;1.40;;
24901;SDS011;31328;51.402;0.016;2022-11-04T16:31:00;3.70;;;1.30;;
24901;SDS011;31328;51.402;0.016;2022-11-04T16:33:29;2.23;;;1.10;;
24901;SDS011;31328;51.402;0.016;2022-11-04T16:35:55;4.40;;;1.23;;
24901;SDS011;31328;51.402;0.016;2022-11-04T16:38:21;5.03;;;1.53;;
24901;SDS011;31328;51.402;0.016;2022-11-04T16:40:47;3.00;;;1.20;;
24901;SDS011;31328;51.402;0.016;2022-11-04T16:43:16;3.10;;;1.20;;
24901;SDS011;31328;51.402;0.016;2022-11-04T16:45:45;5.33;;;1.13;;
24901;SDS011;31328;51.402;0.016;2022-11-04T16:48:16;3.37;;;1.30;;
24901;SDS011;31328;51.402;0.016;2022-11-04T16:50:44;3.90;;;1.33;;
24901;SDS011;31328;51.402;0.016;2022-11-04T16:53:11;2.37;;;1.33;;
24901;SDS011;31328;51.402;0.016;2022-11-04T16:55:38;3.83;;;1.57;;
24901;SDS011;31328;51.402;0.016;2022-11-04T16:58:06;2.80;;;1.33;;
24901;SDS011;31328;51.402;0.016;2022-11-04T17:00:38;4.37;;;1.97;;
24901;SDS011;31328;51.402;0.016;2022-11-04T17:03:11;6.17;;;1.40;;
24901;SDS011;31328;51.402;0.016;2022-11-04T17:05:52;3.63;;;1.40;;
24901;SDS011;31328;51.402;0.016;2022-11-04T17:08:25;5.03;;;1.30;;
24901;SDS011;31328;51.402;0.016;2022-11-04T17:10:51;3.83;;;1.50;;
24901;SDS011;31328;51.402;0.016;2022-11-04T17:13:18;2.20;;;1.03;;
24901;SDS011;31328;51.402;0.016;2022-11-04T17:15:45;5.17;;;1.73;;
24901;SDS011;31328;51.402;0.016;2022-11-04T17:18:12;2.00;;;1.20;;
24901;SDS011;31328;51.402;0.016;2022-11-04T17:20:39;4.30;;;1.33;;
24901;SDS011;31328;51.402;0.016;2022-11-04T17:23:07;6.63;;;1.73;;
24901;SDS011;31328;51.402;0.016;2022-11-04T17:25:37;2.70;;;1.73;;
24901;SDS011;31328;51.402;0.016;2022-11-04T17:28:03;6.00;;;1.47;;
24901;SDS011;31328;51.402;0.016;2022-11-04T17:30:29;6.67;;;1.73;;
24901;SDS011;31328;51.402;0.016;2022-11-04T17:32:56;4.10;;;1.90;;
24901;SDS011;31328;51.402;0.016;2022-11-04T17:35:22;5.30;;;2.20;;
24901;SDS011;31328;51.402;0.016;2022-11-04T17:37:52;6.23;;;1.80;;
24901;SDS011;31328;51.402;0.016;2022-11-04T17:40:20;2.53;;;1.80;;
24901;SDS011;31328;51.402;0.016;2022-11-04T17:42:48;4.00;;;2.57;;
24901;SDS011;31328;51.402;0.016;2022-11-04T17:45:33;9.07;;;2.92;;
24901;SDS011;31328;51.402;0.016;2022-11-04T17:48:03;6.43;;;2.60;;
24901;SDS011;31328;51.402;0.016;2022-11-04T17:50:30;4.50;;;2.40;;
24901;SDS011;31328;51.402;0.016;2022-11-04T17:52:57;8.20;;;2.70;;